Time;durP1;ratioP1;P1;durP2;ratioP2;P2;SDS_P1;SDS_P2;PMS_P1;PMS_P2;Temp;Humidity;BMP_temperature;BMP_pressure;BME280_temperature;BME280_humidity;BME280_pressure;Samples;Min_cycle;Max_cycle;Signal;HPM_P1;HPM_P2
2021/08/09 00:00:40;;;;;;;13.02;10.45;;;640.00;1587.20;;;;;;5030312;28;20057;-63
2021/08/09 00:03:07;;;;;;;14.15;11.55;;;640.00;1612.80;;;;;;5029900;28;20060;-60
2021/08/09 00:05:33;;;;;;;14.65;11.40;;;615.30;1638.40;;;;;;5030285;28;20109;-57
2021/08/09 00:07:59;;;;;;;14.32;10.77;;;615.10;1689.60;;;;;;5030013;28;20041;-56
2021/08/09 00:10:27;;;;;;;11.75;10.30;;;615.10;1664.00;;;;;;5029975;28;20086;-61
2021/08/09 00:12:56;;;;;;;13.80;10.77;;;615.10;1664.00;;;;;;5029909;28;20026;-60
2021/08/09 00:15:23;;;;;;;12.95;11.38;;;615.10;1664.00;;;;;;5030233;28;20026;-61
2021/08/09 00:17:48;;;;;;;12.85;11.35;;;615.10;1689.60;;;;;;5030003;28;20037;-60
2021/08/09 00:20:15;;;;;;;12.82;10.70;;;615.00;1689.60;;;;;;5029828;28;20150;-57
2021/08/09 00:22:41;;;;;;;13.10;10.27;;;615.00;1689.60;;;;;;5029949;28;20438;-58
2021/08/09 00:25:08;;;;;;;13.38;10.93;;;614.90;1689.60;;;;;;5029462;28;20029;-57
2021/08/09 00:27:34;;;;;;;15.00;10.57;;;615.00;1689.60;;;;;;5029537;28;20442;-58
2021/08/09 00:30:00;;;;;;;14.38;11.82;;;615.00;1715.20;;;;;;5030095;28;20026;-61
2021/08/09 00:32:26;;;;;;;19.48;10.63;;;614.90;1689.60;;;;;;5029784;28;20031;-62
2021/08/09 00:34:52;;;;;;;13.70;10.82;;;615.00;1664.00;;;;;;5030102;28;20087;-62
2021/08/09 00:37:18;;;;;;;13.48;10.88;;;615.00;1638.40;;;;;;5029690;28;20021;-62
2021/08/09 00:39:44;;;;;;;16.08;11.38;;;615.00;1638.40;;;;;;5029657;28;20025;-58
2021/08/09 00:42:09;;;;;;;17.17;11.15;;;615.00;1612.80;;;;;;5029693;28;20435;-59
2021/08/09 00:44:36;;;;;;;14.70;11.45;;;615.00;1612.80;;;;;;5029596;28;20036;-63
2021/08/09 00:47:02;;;;;;;13.48;10.65;;;615.00;1612.80;;;;;;5029593;28;20117;-61
2021/08/09 00:49:28;;;;;;;20.90;11.45;;;615.00;1638.40;;;;;;5029362;28;20486;-61
2021/08/09 00:51:55;;;;;;;18.48;11.25;;;614.90;1664.00;;;;;;5029452;28;20030;-58
2021/08/09 00:54:23;;;;;;;12.30;11.00;;;614.80;1689.60;;;;;;5029858;28;20033;-61
2021/08/09 00:56:49;;;;;;;15.15;10.45;;;614.70;1715.20;;;;;;5029183;28;20037;-60
2021/08/09 00:59:16;;;;;;;14.20;10.48;;;614.60;1715.20;;;;;;5029565;28;20033;-60
2021/08/09 01:01:42;;;;;;;14.15;10.73;;;614.50;1715.20;;;;;;5029931;28;20107;-57
2021/08/09 01:04:09;;;;;;;15.65;11.80;;;614.40;1715.20;;;;;;5029624;28;20029;-56
2021/08/09 01:06:35;;;;;;;13.52;10.70;;;614.50;1664.00;;;;;;5029550;28;20029;-58
2021/08/09 01:09:19;;;;;;;15.48;11.13;;;614.50;1664.00;;;;;;5029532;28;20092;-57
2021/08/09 01:11:53;;;;;;;14.70;11.10;;;614.60;1638.40;;;;;;5029261;28;20353;-59
2021/08/09 01:14:30;;;;;;;15.55;11.27;;;614.80;1638.40;;;;;;5029245;28;20462;-58
2021/08/09 01:16:57;;;;;;;15.68;11.07;;;614.80;1612.80;;;;;;5029320;28;20025;-62
2021/08/09 01:19:26;;;;;;;14.05;11.38;;;614.80;1612.80;;;;;;5029358;28;20025;-58
2021/08/09 01:21:58;;;;;;;14.15;10.55;;;614.80;1612.80;;;;;;5029416;28;20045;-58
2021/08/09 01:24:35;;;;;;;15.25;11.55;;;614.80;1612.80;;;;;;5028776;28;20491;-57
2021/08/09 01:27:29;;;;;;;15.82;11.25;;;614.90;1638.40;;;;;;5028995;28;20050;-57
2021/08/09 01:29:58;;;;;;;12.43;9.88;;;614.80;1612.80;;;;;;5032810;28;20040;-57
2021/08/09 01:32:26;;;;;;;13.65;10.90;;;614.80;1664.00;;;;;;5032644;28;20061;-60
2021/08/09 01:34:54;;;;;;;14.80;11.13;;;614.80;1664.00;;;;;;5032891;28;20021;-59
2021/08/09 01:37:22;;;;;;;15.00;12.07;;;614.70;1689.60;;;;;;5032938;28;20025;-61
2021/08/09 01:39:48;;;;;;;13.13;11.05;;;614.50;1689.60;;;;;;5032510;28;20029;-57
2021/08/09 01:42:17;;;;;;;19.00;12.15;;;614.50;1715.20;;;;;;5032652;28;20083;-58
2021/08/09 01:44:42;;;;;;;15.68;11.15;;;614.40;1740.80;;;;;;5032398;28;20057;-56
2021/08/09 01:47:09;;;;;;;14.85;11.98;;;614.40;1740.80;;;;;;5032295;28;20491;-57
2021/08/09 01:49:36;;;;;;;12.20;10.00;;;589.70;1740.80;;;;;;5032306;28;20057;-57
2021/08/09 01:52:02;;;;;;;14.20;10.98;;;589.60;1766.40;;;;;;5032420;28;20039;-61
2021/08/09 01:54:28;;;;;;;14.93;11.18;;;589.50;1766.40;;;;;;5032470;28;20030;-60
2021/08/09 01:56:55;;;;;;;14.88;11.30;;;589.60;1715.20;;;;;;5032223;28;20025;-59
2021/08/09 01:59:21;;;;;;;14.48;10.65;;;589.60;1715.20;;;;;;5032321;28;20032;-61
2021/08/09 02:01:48;;;;;;;12.35;10.30;;;589.60;1715.20;;;;;;5032298;28;20053;-58
2021/08/09 02:04:13;;;;;;;12.88;10.32;;;589.60;1740.80;;;;;;5032509;28;20502;-56
2021/08/09 02:06:39;;;;;;;11.90;10.50;;;589.60;1715.20;;;;;;5031679;28;20029;-60
2021/08/09 02:09:07;;;;;;;11.93;10.07;;;589.70;1715.20;;;;;;5031858;28;20116;-57
2021/08/09 02:11:33;;;;;;;12.95;10.45;;;589.60;1715.20;;;;;;5032191;28;20018;-58
2021/08/09 02:14:01;;;;;;;13.23;10.38;;;589.50;1715.20;;;;;;5031967;28;20021;-62
2021/08/09 02:16:45;;;;;;;13.70;10.25;;;589.70;1689.60;;;;;;5031929;28;20560;-62
2021/08/09 02:19:23;;;;;;;11.35;9.52;;;589.70;1689.60;;;;;;5032057;28;20033;-60
2021/08/09 02:22:03;;;;;;;14.10;11.15;;;589.70;1689.60;;;;;;5031723;28;20017;-61
2021/08/09 02:24:36;;;;;;;13.02;10.05;;;589.70;1664.00;;;;;;5031571;28;20034;-57
2021/08/09 02:27:13;;;;;;;15.15;10.68;;;589.30;1792.00;;;;;;5031545;28;20050;-57
2021/08/09 02:29:42;;;;;;;13.23;10.00;;;589.40;1740.80;;;;;;5032013;28;20407;-61
2021/08/09 02:32:09;;;;;;;13.05;10.20;;;589.30;1817.60;;;;;;5031825;28;20079;-60
2021/08/09 02:34:37;;;;;;;15.07;10.68;;;589.10;1792.00;;;;;;5031696;28;20066;-59
2021/08/09 02:37:04;;;;;;;13.00;10.45;;;589.30;1740.80;;;;;;5031772;28;20033;-59
2021/08/09 02:39:31;;;;;;;16.92;10.07;;;589.30;1766.40;;;;;;5030522;28;20021;-60
2021/08/09 02:41:58;;;;;;;13.20;10.43;;;589.40;1715.20;;;;;;5031424;28;20030;-60
2021/08/09 02:44:24;;;;;;;13.02;10.45;;;589.50;1715.20;;;;;;5031515;28;20026;-58
2021/08/09 02:46:51;;;;;;;11.85;10.02;;;589.50;1689.60;;;;;;5031661;28;20022;-61
2021/08/09 02:49:18;;;;;;;16.75;10.65;;;589.60;1664.00;;;;;;5031432;28;20028;-57
2021/08/09 02:51:45;;;;;;;14.25;11.60;;;589.70;1689.60;;;;;;5031185;28;20041;-59
2021/08/09 02:54:17;;;;;;;13.32;10.32;;;589.60;1689.60;;;;;;5031526;28;20030;-61
2021/08/09 02:56:45;;;;;;;12.97;10.27;;;589.60;1664.00;;;;;;5031541;28;20064;-57
2021/08/09 02:59:11;;;;;;;13.00;11.02;;;589.60;1664.00;;;;;;5031156;28;20079;-57
2021/08/09 03:01:39;;;;;;;13.48;10.45;;;589.60;1638.40;;;;;;5031204;28;20033;-57
2021/08/09 03:04:10;;;;;;;12.82;9.85;;;589.60;1638.40;;;;;;5030866;28;20057;-57
2021/08/09 03:06:37;;;;;;;13.00;9.80;;;589.60;1638.40;;;;;;5030997;28;20029;-57
2021/08/09 03:09:05;;;;;;;12.70;10.35;;;589.60;1664.00;;;;;;5030979;28;20120;-57
2021/08/09 03:11:33;;;;;;;15.32;11.23;;;589.60;1664.00;;;;;;5031125;28;20024;-57
2021/08/09 03:13:58;;;;;;;11.30;10.10;;;589.60;1664.00;;;;;;5030617;28;20030;-57
2021/08/09 03:16:24;;;;;;;22.40;10.98;;;589.50;1715.20;;;;;;5030699;28;20028;-57
2021/08/09 03:18:50;;;;;;;13.35;9.75;;;589.40;1715.20;;;;;;5031003;28;20029;-57
2021/08/09 03:21:15;;;;;;;15.95;9.65;;;589.40;1715.20;;;;;;5030687;28;20018;-58
2021/08/09 03:23:41;;;;;;;13.07;11.32;;;589.40;1689.60;;;;;;5030923;28;20041;-57
2021/08/09 03:26:07;;;;;;;14.98;10.38;;;589.40;1664.00;;;;;;5030801;28;20214;-56
2021/08/09 03:28:33;;;;;;;13.00;10.10;;;589.50;1664.00;;;;;;5030327;28;20525;-57
2021/08/09 03:31:00;;;;;;;15.27;10.55;;;589.50;1689.60;;;;;;5030937;28;20048;-56
2021/08/09 03:33:25;;;;;;;13.38;10.00;;;589.50;1689.60;;;;;;5030381;28;20108;-57
2021/08/09 03:35:51;;;;;;;13.73;10.27;;;589.50;1715.20;;;;;;5030478;28;20183;-57
2021/08/09 03:38:17;;;;;;;13.15;10.00;;;589.40;1689.60;;;;;;5030088;28;20025;-57
2021/08/09 03:40:43;;;;;;;13.82;10.13;;;589.40;1715.20;;;;;;5030505;28;20026;-57
2021/08/09 03:43:08;;;;;;;11.18;9.93;;;589.30;1766.40;;;;;;5030144;28;20108;-57
2021/08/09 03:45:34;;;;;;;13.27;11.45;;;589.20;1766.40;;;;;;5030208;28;20029;-58
2021/08/09 03:48:00;;;;;;;13.25;8.95;;;589.30;1766.40;;;;;;5030576;28;20041;-60
2021/08/09 03:50:26;;;;;;;13.07;9.75;;;589.30;1766.40;;;;;;5029899;28;20115;-59
2021/08/09 03:52:53;;;;;;;13.65;9.80;;;589.20;1766.40;;;;;;5030199;28;20033;-58
2021/08/09 03:55:20;;;;;;;11.32;8.85;;;588.90;1843.20;;;;;;5030119;28;20025;-56
2021/08/09 03:57:46;;;;;;;14.23;9.98;;;589.00;1792.00;;;;;;5029948;28;20108;-57
2021/08/09 04:00:13;;;;;;;12.68;9.15;;;589.20;1740.80;;;;;;5030281;28;20036;-57
2021/08/09 04:02:39;;;;;;;16.77;9.40;;;589.30;1740.80;;;;;;5030201;28;20079;-58
2021/08/09 04:05:07;;;;;;;14.77;10.50;;;589.40;1715.20;;;;;;5030083;28;20499;-57
2021/08/09 04:07:33;;;;;;;11.55;9.80;;;589.40;1715.20;;;;;;5030187;28;20025;-59
2021/08/09 04:09:59;;;;;;;11.93;8.65;;;589.60;1715.20;;;;;;5029823;28;20022;-57
2021/08/09 04:12:24;;;;;;;18.77;10.02;;;589.60;1715.20;;;;;;5029809;28;20021;-58
2021/08/09 04:14:50;;;;;;;15.65;10.15;;;589.70;1715.20;;;;;;5030121;28;20030;-58
2021/08/09 04:17:16;;;;;;;14.02;10.73;;;614.50;1689.60;;;;;;5029971;28;20461;-58
2021/08/09 04:19:42;;;;;;;13.98;11.65;;;614.70;1689.60;;;;;;5030092;28;20030;-58
2021/08/09 04:22:08;;;;;;;14.02;9.80;;;615.00;1612.80;;;;;;5029646;28;20025;-57
2021/08/09 04:24:33;;;;;;;20.25;10.43;;;614.90;1664.00;;;;;;5030010;28;20041;-57
2021/08/09 04:26:59;;;;;;;11.27;9.95;;;614.80;1664.00;;;;;;5029672;28;20124;-57
2021/08/09 04:29:26;;;;;;;12.35;9.85;;;615.10;1664.00;;;;;;5029739;28;20429;-58
2021/08/09 04:31:51;;;;;;;10.30;9.13;;;615.10;1664.00;;;;;;5030017;28;20036;-58
2021/08/09 04:34:17;;;;;;;12.15;9.65;;;614.80;1689.60;;;;;;5029519;28;20025;-59
2021/08/09 04:36:43;;;;;;;10.10;8.85;;;614.80;1689.60;;;;;;5029498;28;20018;-59
2021/08/09 04:39:09;;;;;;;12.90;9.73;;;615.00;1664.00;;;;;;5029469;28;20028;-58
2021/08/09 04:41:35;;;;;;;10.68;8.32;;;615.10;1664.00;;;;;;5029430;28;20032;-59
2021/08/09 04:44:01;;;;;;;11.85;8.82;;;615.10;1689.60;;;;;;5029642;28;20025;-59
2021/08/09 04:46:26;;;;;;;12.63;7.95;;;615.30;1689.60;;;;;;5029620;28;20080;-58
2021/08/09 04:48:52;;;;;;;11.65;8.60;;;640.30;1689.60;;;;;;5029462;28;20124;-57
2021/08/09 04:51:18;;;;;;;14.30;8.57;;;640.50;1715.20;;;;;;5029358;28;20022;-57
2021/08/09 04:53:44;;;;;;;12.73;8.73;;;640.80;1689.60;;;;;;5029686;28;20057;-57
2021/08/09 04:56:10;;;;;;;8.95;7.85;;;665.60;1715.20;;;;;;5029611;28;20156;-57
2021/08/09 04:58:36;;;;;;;11.82;8.77;;;666.00;1715.20;;;;;;5029214;28;20022;-56
2021/08/09 05:01:01;;;;;;;12.23;7.53;;;742.40;1536.00;;;;;;5029636;28;20056;-57
2021/08/09 05:03:27;;;;;;;12.65;8.80;;;793.70;1433.60;;;;;;5031743;28;20025;-57
2021/08/09 05:05:53;;;;;;;13.48;8.82;;;844.90;1356.80;;;;;;5033736;28;20101;-56
2021/08/09 05:08:19;;;;;;;11.52;8.93;;;870.40;1280.00;;;;;;5033149;28;20037;-57
2021/08/09 05:10:44;;;;;;;9.98;8.93;;;870.70;1280.00;;;;;;5033261;28;20109;-57
2021/08/09 05:13:10;;;;;;;18.70;10.65;;;896.90;1152.00;;;;;;5033168;28;20034;-61
2021/08/09 05:15:38;;;;;;;11.02;9.68;;;922.10;1152.00;;;;;;5032775;28;20075;-56
2021/08/09 05:18:04;;;;;;;12.32;9.82;;;947.80;1100.80;;;;;;5033339;28;20044;-61
2021/08/09 05:20:30;;;;;;;13.15;8.13;;;948.10;1075.20;;;;;;5033019;28;20021;-58
2021/08/09 05:22:56;;;;;;;12.30;9.32;;;948.10;1075.20;;;;;;5032766;28;20038;-59
2021/08/09 05:25:22;;;;;;;12.45;9.52;;;947.90;1075.20;;;;;;5033056;28;20040;-65
2021/08/09 05:27:48;;;;;;;11.48;8.77;;;972.80;1100.80;;;;;;5030235;28;20049;-60
2021/08/09 05:30:14;;;;;;;10.05;9.15;;;948.10;1075.20;;;;;;5031276;28;20472;-58
2021/08/09 05:32:40;;;;;;;10.23;9.13;;;973.70;1049.60;;;;;;5031180;28;20065;-60
2021/08/09 05:35:08;;;;;;;11.05;9.77;;;973.40;1075.20;;;;;;5015449;28;20345;-63
2021/08/09 05:37:34;;;;;;;10.63;9.73;;;998.50;1075.20;;;;;;5033080;28;20021;-62
2021/08/09 05:40:02;;;;;;;11.15;9.50;;;998.40;1100.80;;;;;;5032744;28;20484;-57
2021/08/09 05:42:28;;;;;;;11.27;9.88;;;998.80;1075.20;;;;;;5032515;28;20072;-62
2021/08/09 05:44:54;;;;;;;12.30;11.10;;;1024.20;1024.00;;;;;;5032703;28;20045;-60
2021/08/09 05:47:20;;;;;;;10.73;9.82;;;1049.60;1024.00;;;;;;5032809;28;20383;-60
2021/08/09 05:49:46;;;;;;;14.23;9.75;;;1049.80;1024.00;;;;;;5032470;28;20095;-60
2021/08/09 05:52:23;;;;;;;11.80;10.48;;;1049.90;1024.00;;;;;;5032449;28;20033;-62
2021/08/09 05:54:49;;;;;;;12.88;10.25;;;1050.50;998.40;;;;;;5032338;28;20038;-62
2021/08/09 05:57:15;;;;;;;12.05;9.90;;;1075.80;947.20;;;;;;5032309;28;20033;-64
2021/08/09 05:59:41;;;;;;;12.45;11.32;;;1075.90;972.80;;;;;;5032514;28;20022;-61
2021/08/09 06:02:07;;;;;;;11.10;10.20;;;1101.30;947.20;;;;;;5032137;28;20382;-63
2021/08/09 06:04:33;;;;;;;13.05;11.98;;;1101.30;947.20;;;;;;5032327;28;20033;-61
2021/08/09 06:06:58;;;;;;;13.00;11.80;;;1101.20;947.20;;;;;;5032143;28;20163;-60
2021/08/09 06:09:24;;;;;;;13.13;12.07;;;1101.40;947.20;;;;;;5032199;28;20412;-60
2021/08/09 06:11:50;;;;;;;12.35;11.32;;;1101.00;947.20;;;;;;5032193;28;20032;-60
2021/08/09 06:14:16;;;;;;;13.32;12.32;;;1101.70;921.60;;;;;;5031770;28;20063;-66
2021/08/09 06:16:41;;;;;;;13.07;11.95;;;1127.30;921.60;;;;;;5032240;28;20478;-59
2021/08/09 06:19:07;;;;;;;14.35;13.25;;;1127.00;921.60;;;;;;5031997;28;20438;-61
2021/08/09 06:21:33;;;;;;;16.02;14.63;;;1127.10;921.60;;;;;;5031843;28;20029;-60
2021/08/09 06:23:58;;;;;;;14.68;13.68;;;1127.10;921.60;;;;;;5031873;28;20026;-60
2021/08/09 06:26:24;;;;;;;15.57;14.48;;;1127.10;921.60;;;;;;5031479;28;20383;-60
2021/08/09 06:28:50;;;;;;;14.05;12.88;;;1152.00;896.00;;;;;;5031614;28;20037;-63
2021/08/09 06:31:16;;;;;;;15.00;13.80;;;1152.00;921.60;;;;;;5031722;28;20033;-65
2021/08/09 06:33:41;;;;;;;14.55;13.23;;;1152.70;896.00;;;;;;5031848;28;20030;-61
2021/08/09 06:36:07;;;;;;;14.32;13.20;;;1177.80;870.40;;;;;;5031525;28;20472;-61
2021/08/09 06:38:33;;;;;;;14.48;13.02;;;1178.00;844.80;;;;;;5031697;28;20025;-59
2021/08/09 06:40:59;;;;;;;15.40;14.38;;;1203.20;844.80;;;;;;5031574;28;20049;-59
2021/08/09 06:43:24;;;;;;;16.05;14.80;;;1203.20;844.80;;;;;;5031238;28;20116;-59
2021/08/09 06:45:50;;;;;;;14.40;13.30;;;1152.70;870.40;;;;;;5031416;28;20464;-59
2021/08/09 06:48:16;;;;;;;15.63;14.32;;;1177.80;844.80;;;;;;5031464;28;20037;-59
2021/08/09 06:50:43;;;;;;;16.52;15.00;;;1203.60;844.80;;;;;;5031317;28;20456;-61
2021/08/09 06:53:09;;;;;;;19.30;16.17;;;1228.80;844.80;;;;;;5030974;28;20029;-60
2021/08/09 06:55:35;;;;;;;17.02;15.82;;;1204.10;819.20;;;;;;5011586;28;20022;-63
2021/08/09 06:58:01;;;;;;;15.90;14.02;;;1203.30;844.80;;;;;;5011202;28;20096;-59
2021/08/09 07:00:27;;;;;;;18.25;17.05;;;1203.70;844.80;;;;;;5011136;28;20029;-60
2021/08/09 07:02:52;;;;;;;15.88;14.70;;;1228.80;819.20;;;;;;5011575;28;20030;-59
2021/08/09 07:05:19;;;;;;;14.48;13.35;;;1229.30;819.20;;;;;;5011330;28;20057;-60
2021/08/09 07:07:44;;;;;;;16.08;14.95;;;1229.20;819.20;;;;;;5016452;28;20037;-63
2021/08/09 07:10:11;;;;;;;17.98;16.20;;;1228.90;844.80;;;;;;5019888;28;20479;-60
2021/08/09 07:12:36;;;;;;;16.95;15.85;;;1228.80;844.80;;;;;;5020251;28;20017;-62
2021/08/09 07:15:03;;;;;;;17.60;16.40;;;1228.90;819.20;;;;;;5021398;28;20424;-66
2021/08/09 07:17:29;;;;;;;15.35;14.30;;;1229.40;793.60;;;;;;5025158;28;20491;-58
2021/08/09 07:19:54;;;;;;;17.20;15.88;;;1229.70;768.00;;;;;;5010954;28;20026;-60
2021/08/09 07:22:20;;;;;;;16.45;15.38;;;1254.90;768.00;;;;;;5010947;28;20036;-59
2021/08/09 07:24:46;;;;;;;15.82;14.63;;;1254.80;793.60;;;;;;5010540;28;20041;-65
2021/08/09 07:27:12;;;;;;;16.45;15.10;;;1254.90;768.00;;;;;;5010623;28;20181;-60
2021/08/09 07:29:38;;;;;;;17.33;16.05;;;1280.00;768.00;;;;;;5010822;28;20383;-62
2021/08/09 07:32:04;;;;;;;17.13;15.88;;;1280.90;742.40;;;;;;5010734;28;20026;-64
2021/08/09 07:34:29;;;;;;;17.52;16.48;;;1280.50;742.40;;;;;;5011029;28;20038;-62
2021/08/09 07:36:55;;;;;;;16.00;14.70;;;1305.60;716.80;;;;;;5011305;28;20026;-67
2021/08/09 07:39:21;;;;;;;16.13;15.00;;;1255.00;768.00;;;;;;5011039;28;20447;-58
2021/08/09 07:41:46;;;;;;;13.82;12.70;;;1254.80;768.00;;;;;;5010774;28;20032;-60
2021/08/09 07:44:12;;;;;;;16.77;15.55;;;1280.00;742.40;;;;;;5010824;28;20033;-59
2021/08/09 07:46:38;;;;;;;15.30;14.30;;;1254.60;793.60;;;;;;5010463;28;20026;-61
2021/08/09 07:49:04;;;;;;;15.98;14.63;;;1254.60;768.00;;;;;;5010602;28;20125;-59
2021/08/09 07:51:30;;;;;;;15.43;14.30;;;1255.10;768.00;;;;;;5010651;28;20113;-62
2021/08/09 07:53:55;;;;;;;16.88;15.25;;;1255.00;768.00;;;;;;5010431;28;20030;-61
2021/08/09 07:56:21;;;;;;;15.02;14.10;;;1254.80;768.00;;;;;;5010696;28;20571;-59
2021/08/09 07:58:47;;;;;;;16.15;15.10;;;1255.00;742.40;;;;;;5029335;28;20387;-59
2021/08/09 08:01:12;;;;;;;15.85;14.73;;;1280.20;716.80;;;;;;5029818;28;20071;-60
2021/08/09 08:03:38;;;;;;;14.15;13.18;;;1280.50;716.80;;;;;;5029611;28;20021;-63
2021/08/09 08:06:04;;;;;;;16.60;15.15;;;1280.50;716.80;;;;;;5026314;28;20037;-62
2021/08/09 08:08:29;;;;;;;16.80;15.40;;;1280.50;716.80;;;;;;5023827;28;20048;-60
2021/08/09 08:10:55;;;;;;;16.65;15.20;;;1305.70;691.20;;;;;;5028145;28;20029;-59
2021/08/09 08:13:21;;;;;;;15.98;14.85;;;1280.20;742.40;;;;;;5021146;28;20033;-58
2021/08/09 08:15:47;;;;;;;15.88;14.60;;;1280.50;716.80;;;;;;5023984;28;20048;-61
2021/08/09 08:18:12;;;;;;;15.63;14.52;;;1280.20;742.40;;;;;;5022009;28;20034;-63
2021/08/09 08:20:38;;;;;;;15.13;13.93;;;1254.90;768.00;;;;;;5015967;28;20383;-61
2021/08/09 08:23:04;;;;;;;14.93;13.95;;;1254.80;768.00;;;;;;5012926;28;20029;-62
2021/08/09 08:25:32;;;;;;;14.35;13.13;;;1280.20;716.80;;;;;;5018693;28;20060;-58
2021/08/09 08:27:58;;;;;;;14.70;13.48;;;1255.10;742.40;;;;;;5027569;28;20045;-60
2021/08/09 08:30:23;;;;;;;13.85;12.95;;;1229.20;768.00;;;;;;5027832;28;20525;-60
2021/08/09 08:32:49;;;;;;;14.38;13.23;;;1229.50;742.40;;;;;;5027878;28;20037;-61
2021/08/09 08:35:15;;;;;;;14.35;13.25;;;1178.30;768.00;;;;;;5027868;28;20075;-62
2021/08/09 08:37:41;;;;;;;13.60;12.23;;;1126.70;870.40;;;;;;5030671;28;20095;-61
2021/08/09 08:40:07;;;;;;;14.00;10.43;;;1075.40;921.60;;;;;;5031948;28;20100;-63
2021/08/09 08:42:33;;;;;;;10.27;9.32;;;999.10;998.40;;;;;;5031821;28;20472;-67
2021/08/09 08:44:58;;;;;;;11.45;10.27;;;973.10;1049.60;;;;;;5031438;28;20029;-61
2021/08/09 08:47:26;;;;;;;12.40;10.02;;;948.10;1024.00;;;;;;5032362;28;20030;-60
2021/08/09 08:49:53;;;;;;;12.73;10.00;;;947.30;1049.60;;;;;;5033541;28;20506;-69
2021/08/09 08:52:19;;;;;;;9.48;8.38;;;922.50;1075.20;;;;;;5031675;28;20029;-67
2021/08/09 08:54:45;;;;;;;11.40;9.52;;;947.30;1075.20;;;;;;5033130;28;20083;-65
2021/08/09 08:57:19;;;;;;;9.70;8.90;;;922.40;1100.80;;;;;;5032914;28;20017;-60
2021/08/09 08:59:45;;;;;;;22.30;9.25;;;921.90;1152.00;;;;;;5032747;28;20026;-59
2021/08/09 09:02:35;;;;;;;13.02;8.70;;;921.90;1152.00;;;;;;5032800;28;20534;-65
2021/08/09 09:05:18;;;;;;;9.07;8.18;;;922.50;1126.40;;;;;;5031611;28;20372;-57
2021/08/09 09:07:48;;;;;;;8.55;7.75;;;947.20;1126.40;;;;;;5031844;28;20057;-59
2021/08/09 09:10:22;;;;;;;12.30;8.18;;;947.30;1126.40;;;;;;5030358;28;20441;-58
2021/08/09 09:13:10;;;;;;;9.70;8.05;;;947.50;1126.40;;;;;;5032450;28;20051;-60
2021/08/09 09:15:55;;;;;;;8.40;7.55;;;947.30;1152.00;;;;;;5031497;28;20443;-56
2021/08/09 09:18:22;;;;;;;10.68;7.93;;;947.20;1126.40;;;;;;5030034;28;20025;-56
2021/08/09 09:20:48;;;;;;;10.93;7.78;;;947.20;1126.40;;;;;;5032439;28;20026;-56
2021/08/09 09:23:20;;;;;;;11.65;7.55;;;922.40;1152.00;;;;;;5032762;28;20152;-58
2021/08/09 09:25:47;;;;;;;9.17;7.87;;;922.50;1152.00;;;;;;5030593;28;20033;-56
2021/08/09 09:28:33;;;;;;;8.85;7.78;;;922.50;1203.20;;;;;;5032394;28;20330;-56
2021/08/09 09:31:06;;;;;;;13.38;8.27;;;947.20;1177.60;;;;;;5031585;28;20037;-58
2021/08/09 09:33:32;;;;;;;7.95;7.18;;;947.30;1126.40;;;;;;5032338;28;20029;-56
2021/08/09 09:36:03;;;;;;;13.18;8.05;;;947.30;1152.00;;;;;;5032506;28;20112;-59
2021/08/09 09:38:40;;;;;;;10.40;8.00;;;947.40;1152.00;;;;;;5032316;28;20372;-56
2021/08/09 09:41:07;;;;;;;8.25;7.55;;;947.20;1152.00;;;;;;5029924;28;20383;-56
2021/08/09 09:43:44;;;;;;;8.25;7.45;;;922.40;1152.00;;;;;;5032307;28;20071;-58
2021/08/09 09:46:24;;;;;;;15.15;8.32;;;922.30;1177.60;;;;;;5030045;28;20021;-58
2021/08/09 09:48:56;;;;;;;11.15;7.88;;;922.50;1177.60;;;;;;5029832;28;20025;-56
2021/08/09 09:51:22;;;;;;;10.38;8.15;;;922.30;1152.00;;;;;;5032078;28;20033;-57
2021/08/09 09:53:49;;;;;;;10.48;7.75;;;922.50;1177.60;;;;;;5031849;28;20021;-56
2021/08/09 09:56:15;;;;;;;15.13;8.43;;;921.80;1203.20;;;;;;5031964;28;20013;-67
2021/08/09 09:58:41;;;;;;;8.15;7.32;;;896.90;1177.60;;;;;;5031983;28;20109;-71
2021/08/09 10:01:08;;;;;;;8.32;7.53;;;896.80;1203.20;;;;;;5031491;28;20113;-63
2021/08/09 10:03:36;;;;;;;8.95;7.93;;;896.60;1203.20;;;;;;5031723;28;20026;-55
2021/08/09 10:06:03;;;;;;;8.85;7.43;;;896.90;1203.20;;;;;;5031752;28;20017;-55
2021/08/09 10:08:33;;;;;;;9.40;7.93;;;921.80;1203.20;;;;;;5031508;28;20087;-55
2021/08/09 10:11:02;;;;;;;9.70;7.60;;;921.90;1177.60;;;;;;5031600;28;20068;-68
2021/08/09 10:13:31;;;;;;;10.18;7.45;;;896.90;1152.00;;;;;;5029250;28;20468;-60
2021/08/09 10:16:03;;;;;;;9.63;7.57;;;896.60;1177.60;;;;;;5031502;28;20021;-70
2021/08/09 10:18:55;;;;;;;14.07;7.82;;;921.60;1177.60;;;;;;5029133;28;20365;-54
2021/08/09 10:21:23;;;;;;;11.80;8.38;;;921.60;1177.60;;;;;;5026799;28;20036;-71
2021/08/09 10:23:49;;;;;;;9.55;7.70;;;896.80;1177.60;;;;;;5031059;28;20033;-61
2021/08/09 10:26:34;;;;;;;15.27;8.98;;;896.60;1203.20;;;;;;5031109;28;20479;-70
2021/08/09 10:29:08;;;;;;;14.07;8.77;;;896.60;1203.20;;;;;;5030804;28;20040;-59
2021/08/09 10:31:40;;;;;;;11.20;7.85;;;896.60;1228.80;;;;;;5031180;28;20037;-54
2021/08/09 10:34:29;;;;;;;10.35;8.27;;;896.70;1203.20;;;;;;5028597;28;20029;-56
2021/08/09 10:37:10;;;;;;;8.55;7.47;;;896.80;1203.20;;;;;;5027509;28;20022;-59
2021/08/09 10:40:03;;;;;;;8.32;6.65;;;896.80;1177.60;;;;;;5028487;28;20103;-55
2021/08/09 10:42:40;;;;;;;10.93;8.18;;;896.90;1177.60;;;;;;5017649;28;20103;-55
2021/08/09 10:45:14;;;;;;;13.75;8.27;;;896.70;1177.60;;;;;;5026617;28;20025;-59
2021/08/09 10:47:46;;;;;;;8.07;6.97;;;896.60;1177.60;;;;;;5029245;28;20037;-68
2021/08/09 10:50:42;;;;;;;11.35;7.78;;;896.90;1152.00;;;;;;5029491;28;20032;-58
2021/08/09 10:53:26;;;;;;;11.07;7.93;;;896.90;1203.20;;;;;;5027023;28;20037;-55
2021/08/09 10:55:56;;;;;;;12.45;8.05;;;896.30;1203.20;;;;;;5028030;28;20029;-55
2021/08/09 10:58:40;;;;;;;10.15;7.60;;;896.40;1177.60;;;;;;5029239;28;20021;-60
2021/08/09 11:01:07;;;;;;;8.80;7.90;;;896.20;1203.20;;;;;;5025130;28;20027;-56
2021/08/09 11:03:32;;;;;;;8.93;6.53;;;896.40;1203.20;;;;;;5029327;28;20061;-58
2021/08/09 11:05:58;;;;;;;9.00;7.68;;;896.20;1203.20;;;;;;5028921;28;20589;-62
2021/08/09 11:08:24;;;;;;;9.77;8.25;;;896.50;1203.20;;;;;;5026391;28;20037;-56
2021/08/09 11:10:55;;;;;;;10.50;7.57;;;896.70;1203.20;;;;;;5029403;28;20484;-55
2021/08/09 11:13:29;;;;;;;10.88;8.15;;;896.90;1177.60;;;;;;5029021;28;20021;-60
2021/08/09 11:15:59;;;;;;;10.95;7.93;;;896.60;1177.60;;;;;;5028280;28;20017;-69
2021/08/09 11:18:30;;;;;;;9.00;8.15;;;896.20;1177.60;;;;;;5026090;28;20025;-56
2021/08/09 11:21:10;;;;;;;8.65;7.53;;;896.40;1177.60;;;;;;5029016;28;20017;-71
2021/08/09 11:23:46;;;;;;;9.18;6.75;;;896.50;1177.60;;;;;;5027695;28;20127;-56
2021/08/09 11:26:23;;;;;;;11.20;7.15;;;896.70;1177.60;;;;;;5009225;28;20389;-58
2021/08/09 11:29:07;;;;;;;11.55;8.10;;;896.50;1177.60;;;;;;5025653;28;20044;-69
2021/08/09 11:31:47;;;;;;;8.10;7.05;;;896.50;1177.60;;;;;;5028065;28;20025;-72
2021/08/09 11:34:13;;;;;;;10.38;7.97;;;896.50;1177.60;;;;;;5029040;28;20108;-72
2021/08/09 11:36:40;;;;;;;11.23;7.50;;;896.60;1177.60;;;;;;5028950;28;20026;-73
2021/08/09 11:39:06;;;;;;;8.80;7.43;;;896.40;1177.60;;;;;;5028807;28;20036;-67
2021/08/09 11:41:32;;;;;;;9.20;7.68;;;896.70;1177.60;;;;;;5028420;28;20061;-68
2021/08/09 11:44:08;;;;;;;8.77;7.75;;;896.70;1152.00;;;;;;5029052;28;20064;-67
2021/08/09 11:46:47;;;;;;;10.52;7.90;;;896.70;1177.60;;;;;;5021095;28;20022;-58
2021/08/09 11:49:14;;;;;;;11.70;7.15;;;896.60;1152.00;;;;;;5026192;28;20037;-63
2021/08/09 11:51:40;;;;;;;17.17;8.25;;;896.70;1177.60;;;;;;5028216;28;20109;-73
2021/08/09 11:54:06;;;;;;;18.17;7.90;;;896.70;1177.60;;;;;;5027867;28;20381;-73
2021/08/09 11:56:43;;;;;;;11.18;7.28;;;896.90;1177.60;;;;;;5028736;28;20032;-66
2021/08/09 11:59:13;;;;;;;8.77;6.97;;;896.40;1177.60;;;;;;5028542;28;20072;-69
2021/08/09 12:01:41;;;;;;;10.18;8.13;;;896.50;1177.60;;;;;;5028414;28;20024;-73
2021/08/09 12:04:30;;;;;;;10.88;8.15;;;896.50;1177.60;;;;;;5028515;28;20108;-63
2021/08/09 12:06:59;;;;;;;12.25;7.53;;;896.40;1177.60;;;;;;5027877;28;20029;-72
2021/08/09 12:09:41;;;;;;;8.00;6.88;;;896.90;1152.00;;;;;;5028512;28;20064;-59